sensor_id;sensor_type;location;lat;lon;timestamp;P1;durP1;ratioP1;P2;durP2;ratioP2
18695;SDS011;22617;43.690;27.956;2023-04-03T00:03:00;5.87;;;3.77;;
18695;SDS011;22617;43.690;27.956;2023-04-03T00:08:04;7.60;;;4.67;;
18695;SDS011;22617;43.690;27.956;2023-04-03T00:13:11;10.90;;;5.37;;
18695;SDS011;22617;43.690;27.956;2023-04-03T00:18:15;24.47;;;10.80;;
18695;SDS011;22617;43.690;27.956;2023-04-03T00:23:18;23.10;;;10.63;;
18695;SDS011;22617;43.690;27.956;2023-04-03T00:28:23;15.27;;;7.33;;
18695;SDS011;22617;43.690;27.956;2023-04-03T00:33:27;9.27;;;5.70;;
18695;SDS011;22617;43.690;27.956;2023-04-03T00:38:30;7.23;;;4.73;;
18695;SDS011;22617;43.690;27.956;2023-04-03T00:43:35;7.23;;;4.80;;
18695;SDS011;22617;43.690;27.956;2023-04-03T00:48:40;4.93;;;3.77;;
18695;SDS011;22617;43.690;27.956;2023-04-03T00:53:46;6.97;;;4.17;;
18695;SDS011;22617;43.690;27.956;2023-04-03T00:58:54;6.33;;;4.60;;
18695;SDS011;22617;43.690;27.956;2023-04-03T01:04:02;6.50;;;5.00;;
18695;SDS011;22617;43.690;27.956;2023-04-03T01:09:07;7.87;;;4.73;;
18695;SDS011;22617;43.690;27.956;2023-04-03T01:14:12;6.63;;;5.07;;
18695;SDS011;22617;43.690;27.956;2023-04-03T01:19:16;8.33;;;5.73;;
18695;SDS011;22617;43.690;27.956;2023-04-03T01:24:27;8.73;;;6.43;;
18695;SDS011;22617;43.690;27.956;2023-04-03T01:29:39;8.60;;;5.80;;
18695;SDS011;22617;43.690;27.956;2023-04-03T01:34:46;9.40;;;6.03;;
18695;SDS011;22617;43.690;27.956;2023-04-03T01:39:50;7.87;;;5.60;;
18695;SDS011;22617;43.690;27.956;2023-04-03T01:44:53;9.00;;;6.00;;
18695;SDS011;22617;43.690;27.956;2023-04-03T01:49:58;8.30;;;5.63;;
18695;SDS011;22617;43.690;27.956;2023-04-03T01:55:05;8.97;;;5.33;;
18695;SDS011;22617;43.690;27.956;2023-04-03T02:00:10;8.10;;;5.73;;
18695;SDS011;22617;43.690;27.956;2023-04-03T02:05:17;7.77;;;5.30;;
18695;SDS011;22617;43.690;27.956;2023-04-03T02:10:20;8.97;;;5.80;;
18695;SDS011;22617;43.690;27.956;2023-04-03T02:15:24;9.10;;;5.97;;
18695;SDS011;22617;43.690;27.956;2023-04-03T02:20:29;7.40;;;5.30;;
18695;SDS011;22617;43.690;27.956;2023-04-03T02:25:33;8.60;;;5.63;;
18695;SDS011;22617;43.690;27.956;2023-04-03T02:30:39;8.80;;;5.67;;
18695;SDS011;22617;43.690;27.956;2023-04-03T02:35:44;7.93;;;5.33;;
18695;SDS011;22617;43.690;27.956;2023-04-03T02:40:59;8.47;;;5.67;;
18695;SDS011;22617;43.690;27.956;2023-04-03T02:46:06;8.93;;;5.30;;
18695;SDS011;22617;43.690;27.956;2023-04-03T02:51:11;7.63;;;5.57;;
18695;SDS011;22617;43.690;27.956;2023-04-03T02:56:15;8.30;;;5.47;;
18695;SDS011;22617;43.690;27.956;2023-04-03T03:01:20;8.13;;;5.10;;
18695;SDS011;22617;43.690;27.956;2023-04-03T03:06:25;7.43;;;5.47;;
18695;SDS011;22617;43.690;27.956;2023-04-03T03:11:29;8.60;;;5.13;;
18695;SDS011;22617;43.690;27.956;2023-04-03T03:16:33;10.87;;;4.93;;
18695;SDS011;22617;43.690;27.956;2023-04-03T03:21:38;8.53;;;4.60;;
18695;SDS011;22617;43.690;27.956;2023-04-03T03:26:41;6.60;;;4.57;;
18695;SDS011;22617;43.690;27.956;2023-04-03T03:31:46;7.07;;;4.50;;
18695;SDS011;22617;43.690;27.956;2023-04-03T03:36:51;6.10;;;4.37;;
18695;SDS011;22617;43.690;27.956;2023-04-03T03:41:55;6.03;;;4.23;;
18695;SDS011;22617;43.690;27.956;2023-04-03T03:46:59;6.23;;;4.17;;
18695;SDS011;22617;43.690;27.956;2023-04-03T03:52:05;5.10;;;3.93;;
18695;SDS011;22617;43.690;27.956;2023-04-03T03:57:08;6.73;;;4.13;;
18695;SDS011;22617;43.690;27.956;2023-04-03T04:02:12;5.17;;;3.80;;
18695;SDS011;22617;43.690;27.956;2023-04-03T04:07:18;4.90;;;3.63;;
18695;SDS011;22617;43.690;27.956;2023-04-03T04:12:21;6.57;;;4.27;;
18695;SDS011;22617;43.690;27.956;2023-04-03T04:17:25;7.40;;;4.53;;
18695;SDS011;22617;43.690;27.956;2023-04-03T04:22:30;7.53;;;4.37;;
18695;SDS011;22617;43.690;27.956;2023-04-03T04:27:34;5.67;;;4.03;;
18695;SDS011;22617;43.690;27.956;2023-04-03T04:32:39;6.97;;;4.07;;
18695;SDS011;22617;43.690;27.956;2023-04-03T04:37:45;6.67;;;4.07;;
18695;SDS011;22617;43.690;27.956;2023-04-03T04:42:49;7.83;;;4.93;;
18695;SDS011;22617;43.690;27.956;2023-04-03T04:47:54;7.37;;;4.70;;
18695;SDS011;22617;43.690;27.956;2023-04-03T04:53:01;6.97;;;4.30;;
18695;SDS011;22617;43.690;27.956;2023-04-03T04:58:04;7.17;;;4.53;;
18695;SDS011;22617;43.690;27.956;2023-04-03T05:03:09;6.33;;;4.93;;
18695;SDS011;22617;43.690;27.956;2023-04-03T05:08:15;6.37;;;4.43;;
18695;SDS011;22617;43.690;27.956;2023-04-03T05:13:19;6.00;;;4.43;;
18695;SDS011;22617;43.690;27.956;2023-04-03T05:18:23;6.83;;;4.40;;
18695;SDS011;22617;43.690;27.956;2023-04-03T05:23:31;6.13;;;4.80;;
18695;SDS011;22617;43.690;27.956;2023-04-03T05:28:36;6.77;;;4.60;;
18695;SDS011;22617;43.690;27.956;2023-04-03T05:33:41;6.63;;;4.93;;
18695;SDS011;22617;43.690;27.956;2023-04-03T05:38:51;5.63;;;4.10;;
18695;SDS011;22617;43.690;27.956;2023-04-03T05:43:55;6.97;;;4.87;;
18695;SDS011;22617;43.690;27.956;2023-04-03T05:49:00;6.90;;;4.73;;
18695;SDS011;22617;43.690;27.956;2023-04-03T05:54:09;6.90;;;5.40;;
18695;SDS011;22617;43.690;27.956;2023-04-03T05:59:17;8.53;;;5.83;;
18695;SDS011;22617;43.690;27.956;2023-04-03T06:04:24;7.53;;;5.73;;
18695;SDS011;22617;43.690;27.956;2023-04-03T06:09:30;8.60;;;5.00;;
18695;SDS011;22617;43.690;27.956;2023-04-03T06:14:34;10.73;;;5.40;;
18695;SDS011;22617;43.690;27.956;2023-04-03T06:19:37;11.07;;;7.23;;
18695;SDS011;22617;43.690;27.956;2023-04-03T06:24:42;12.43;;;8.30;;
18695;SDS011;22617;43.690;27.956;2023-04-03T06:29:46;9.70;;;6.57;;
18695;SDS011;22617;43.690;27.956;2023-04-03T06:34:50;9.70;;;5.87;;
18695;SDS011;22617;43.690;27.956;2023-04-03T06:39:56;9.67;;;5.97;;
18695;SDS011;22617;43.690;27.956;2023-04-03T06:44:59;7.17;;;5.17;;
18695;SDS011;22617;43.690;27.956;2023-04-03T06:50:03;16.90;;;5.70;;
18695;SDS011;22617;43.690;27.956;2023-04-03T06:55:12;7.33;;;5.67;;
18695;SDS011;22617;43.690;27.956;2023-04-03T07:00:15;9.17;;;6.10;;
18695;SDS011;22617;43.690;27.956;2023-04-03T07:05:19;8.40;;;6.13;;
18695;SDS011;22617;43.690;27.956;2023-04-03T07:10:25;6.90;;;5.33;;
18695;SDS011;22617;43.690;27.956;2023-04-03T07:15:28;8.93;;;5.40;;
18695;SDS011;22617;43.690;27.956;2023-04-03T07:20:34;7.10;;;5.23;;
18695;SDS011;22617;43.690;27.956;2023-04-03T07:25:43;6.90;;;5.40;;
18695;SDS011;22617;43.690;27.956;2023-04-03T07:30:48;6.70;;;5.60;;
18695;SDS011;22617;43.690;27.956;2023-04-03T07:35:53;6.60;;;4.97;;
18695;SDS011;22617;43.690;27.956;2023-04-03T07:40:58;7.20;;;5.67;;
18695;SDS011;22617;43.690;27.956;2023-04-03T07:46:04;7.27;;;5.63;;
18695;SDS011;22617;43.690;27.956;2023-04-03T07:51:09;7.43;;;5.17;;
18695;SDS011;22617;43.690;27.956;2023-04-03T07:56:14;14.97;;;7.93;;
18695;SDS011;22617;43.690;27.956;2023-04-03T08:01:17;10.87;;;7.20;;
18695;SDS011;22617;43.690;27.956;2023-04-03T08:06:21;7.60;;;5.00;;
18695;SDS011;22617;43.690;27.956;2023-04-03T08:11:44;7.57;;;5.13;;
18695;SDS011;22617;43.690;27.956;2023-04-03T08:16:48;8.27;;;5.80;;
18695;SDS011;22617;43.690;27.956;2023-04-03T08:21:51;7.00;;;4.80;;
18695;SDS011;22617;43.690;27.956;2023-04-03T08:26:56;7.00;;;4.90;;
18695;SDS011;22617;43.690;27.956;2023-04-03T08:32:01;7.70;;;5.50;;
18695;SDS011;22617;43.690;27.956;2023-04-03T08:37:05;8.33;;;5.87;;
18695;SDS011;22617;43.690;27.956;2023-04-03T08:42:14;5.97;;;4.73;;
18695;SDS011;22617;43.690;27.956;2023-04-03T08:47:23;7.17;;;5.13;;
18695;SDS011;22617;43.690;27.956;2023-04-03T08:52:34;7.53;;;4.87;;
18695;SDS011;22617;43.690;27.956;2023-04-03T08:57:43;5.87;;;4.17;;
18695;SDS011;22617;43.690;27.956;2023-04-03T09:02:49;6.33;;;4.83;;
18695;SDS011;22617;43.690;27.956;2023-04-03T09:07:57;6.77;;;5.00;;
18695;SDS011;22617;43.690;27.956;2023-04-03T09:13:10;7.03;;;5.23;;
18695;SDS011;22617;43.690;27.956;2023-04-03T09:18:20;7.83;;;5.53;;
18695;SDS011;22617;43.690;27.956;2023-04-03T09:23:28;7.17;;;5.03;;
18695;SDS011;22617;43.690;27.956;2023-04-03T09:28:39;6.53;;;5.13;;
18695;SDS011;22617;43.690;27.956;2023-04-03T09:33:53;7.10;;;5.53;;
18695;SDS011;22617;43.690;27.956;2023-04-03T09:39:02;7.77;;;5.03;;
18695;SDS011;22617;43.690;27.956;2023-04-03T09:44:22;7.00;;;4.70;;
18695;SDS011;22617;43.690;27.956;2023-04-03T09:49:26;6.60;;;4.67;;
18695;SDS011;22617;43.690;27.956;2023-04-03T09:54:31;5.93;;;4.30;;
18695;SDS011;22617;43.690;27.956;2023-04-03T09:59:41;6.27;;;4.23;;
18695;SDS011;22617;43.690;27.956;2023-04-03T10:04:48;5.70;;;4.80;;
18695;SDS011;22617;43.690;27.956;2023-04-03T10:10:16;4.67;;;4.10;;
18695;SDS011;22617;43.690;27.956;2023-04-03T10:15:23;4.50;;;4.00;;
18695;SDS011;22617;43.690;27.956;2023-04-03T10:20:33;4.87;;;4.10;;
18695;SDS011;22617;43.690;27.956;2023-04-03T10:25:42;4.50;;;4.10;;
18695;SDS011;22617;43.690;27.956;2023-04-03T10:30:54;5.70;;;4.47;;
18695;SDS011;22617;43.690;27.956;2023-04-03T10:36:11;4.33;;;3.93;;
18695;SDS011;22617;43.690;27.956;2023-04-03T10:41:22;4.10;;;3.70;;
18695;SDS011;22617;43.690;27.956;2023-04-03T10:46:36;4.80;;;3.30;;
18695;SDS011;22617;43.690;27.956;2023-04-03T10:51:45;5.27;;;3.63;;
18695;SDS011;22617;43.690;27.956;2023-04-03T10:56:52;4.80;;;3.83;;
18695;SDS011;22617;43.690;27.956;2023-04-03T11:02:16;6.53;;;4.07;;
18695;SDS011;22617;43.690;27.956;2023-04-03T11:07:26;5.17;;;3.70;;
18695;SDS011;22617;43.690;27.956;2023-04-03T11:12:35;4.27;;;3.50;;
18695;SDS011;22617;43.690;27.956;2023-04-03T11:17:48;4.23;;;3.70;;
18695;SDS011;22617;43.690;27.956;2023-04-03T11:22:58;4.00;;;3.47;;
18695;SDS011;22617;43.690;27.956;2023-04-03T11:28:09;4.30;;;3.13;;
18695;SDS011;22617;43.690;27.956;2023-04-03T11:33:20;6.93;;;4.67;;
18695;SDS011;22617;43.690;27.956;2023-04-03T11:38:32;5.73;;;4.27;;
18695;SDS011;22617;43.690;27.956;2023-04-03T11:43:41;5.10;;;4.40;;
18695;SDS011;22617;43.690;27.956;2023-04-03T11:48:59;7.17;;;5.47;;
18695;SDS011;22617;43.690;27.956;2023-04-03T11:59:45;7.33;;;5.63;;
18695;SDS011;22617;43.690;27.956;2023-04-03T12:10:23;9.03;;;6.00;;
18695;SDS011;22617;43.690;27.956;2023-04-03T12:20:56;9.30;;;6.63;;
18695;SDS011;22617;43.690;27.956;2023-04-03T12:26:04;9.73;;;6.80;;
18695;SDS011;22617;43.690;27.956;2023-04-03T12:31:24;9.97;;;6.87;;
18695;SDS011;22617;43.690;27.956;2023-04-03T12:36:39;10.23;;;7.17;;
18695;SDS011;22617;43.690;27.956;2023-04-03T12:41:54;10.13;;;6.90;;
18695;SDS011;22617;43.690;27.956;2023-04-03T12:47:08;11.47;;;7.13;;
18695;SDS011;22617;43.690;27.956;2023-04-03T12:52:32;10.03;;;7.00;;
18695;SDS011;22617;43.690;27.956;2023-04-03T12:57:41;13.73;;;8.50;;
18695;SDS011;22617;43.690;27.956;2023-04-03T13:02:45;13.53;;;8.97;;
18695;SDS011;22617;43.690;27.956;2023-04-03T13:07:49;11.47;;;7.50;;
18695;SDS011;22617;43.690;27.956;2023-04-03T13:13:06;13.83;;;8.03;;
18695;SDS011;22617;43.690;27.956;2023-04-03T13:18:24;11.03;;;7.70;;
18695;SDS011;22617;43.690;27.956;2023-04-03T13:23:30;11.90;;;8.23;;
18695;SDS011;22617;43.690;27.956;2023-04-03T13:28:39;12.80;;;8.53;;
18695;SDS011;22617;43.690;27.956;2023-04-03T13:33:50;19.33;;;10.53;;
18695;SDS011;22617;43.690;27.956;2023-04-03T13:38:59;11.93;;;8.60;;
18695;SDS011;22617;43.690;27.956;2023-04-03T13:44:16;11.70;;;6.80;;
18695;SDS011;22617;43.690;27.956;2023-04-03T13:49:29;10.60;;;7.20;;
18695;SDS011;22617;43.690;27.956;2023-04-03T13:54:37;10.83;;;6.63;;
18695;SDS011;22617;43.690;27.956;2023-04-03T13:59:43;9.63;;;6.30;;
18695;SDS011;22617;43.690;27.956;2023-04-03T14:04:49;12.23;;;9.50;;
18695;SDS011;22617;43.690;27.956;2023-04-03T14:09:58;8.10;;;5.90;;
18695;SDS011;22617;43.690;27.956;2023-04-03T14:15:04;8.07;;;5.07;;
18695;SDS011;22617;43.690;27.956;2023-04-03T14:25:20;10.47;;;6.33;;
18695;SDS011;22617;43.690;27.956;2023-04-03T14:30:27;8.03;;;5.60;;
18695;SDS011;22617;43.690;27.956;2023-04-03T14:35:33;8.87;;;5.13;;
18695;SDS011;22617;43.690;27.956;2023-04-03T14:40:37;9.83;;;5.83;;
18695;SDS011;22617;43.690;27.956;2023-04-03T14:45:42;10.50;;;6.60;;
18695;SDS011;22617;43.690;27.956;2023-04-03T14:50:46;14.90;;;8.23;;
18695;SDS011;22617;43.690;27.956;2023-04-03T14:56:10;12.43;;;7.37;;
18695;SDS011;22617;43.690;27.956;2023-04-03T15:01:16;12.43;;;7.00;;
18695;SDS011;22617;43.690;27.956;2023-04-03T15:06:20;13.17;;;7.57;;
18695;SDS011;22617;43.690;27.956;2023-04-03T15:11:24;13.77;;;8.00;;
18695;SDS011;22617;43.690;27.956;2023-04-03T15:16:29;16.33;;;9.03;;
18695;SDS011;22617;43.690;27.956;2023-04-03T15:21:33;13.93;;;8.83;;
18695;SDS011;22617;43.690;27.956;2023-04-03T15:26:37;13.63;;;8.30;;
18695;SDS011;22617;43.690;27.956;2023-04-03T15:31:42;12.87;;;8.33;;
18695;SDS011;22617;43.690;27.956;2023-04-03T15:36:46;12.43;;;7.27;;
18695;SDS011;22617;43.690;27.956;2023-04-03T15:41:49;12.87;;;7.20;;
18695;SDS011;22617;43.690;27.956;2023-04-03T15:46:55;12.17;;;7.23;;
18695;SDS011;22617;43.690;27.956;2023-04-03T15:51:58;11.00;;;6.40;;
18695;SDS011;22617;43.690;27.956;2023-04-03T15:57:02;11.83;;;6.53;;
18695;SDS011;22617;43.690;27.956;2023-04-03T16:02:07;13.93;;;6.70;;
18695;SDS011;22617;43.690;27.956;2023-04-03T16:07:16;12.57;;;6.43;;
18695;SDS011;22617;43.690;27.956;2023-04-03T16:12:19;9.90;;;5.87;;
18695;SDS011;22617;43.690;27.956;2023-04-03T16:17:24;9.63;;;5.27;;
18695;SDS011;22617;43.690;27.956;2023-04-03T16:22:30;9.57;;;5.70;;
18695;SDS011;22617;43.690;27.956;2023-04-03T16:27:33;9.27;;;5.33;;
18695;SDS011;22617;43.690;27.956;2023-04-03T16:32:38;11.40;;;6.13;;
18695;SDS011;22617;43.690;27.956;2023-04-03T16:37:43;10.90;;;6.00;;
18695;SDS011;22617;43.690;27.956;2023-04-03T16:42:48;11.23;;;5.93;;
18695;SDS011;22617;43.690;27.956;2023-04-03T16:47:53;10.67;;;6.27;;
18695;SDS011;22617;43.690;27.956;2023-04-03T16:52:57;10.87;;;6.03;;
18695;SDS011;22617;43.690;27.956;2023-04-03T16:58:00;14.13;;;6.93;;
18695;SDS011;22617;43.690;27.956;2023-04-03T17:03:05;11.67;;;6.20;;
18695;SDS011;22617;43.690;27.956;2023-04-03T17:08:09;12.23;;;6.83;;
18695;SDS011;22617;43.690;27.956;2023-04-03T17:13:12;13.90;;;7.10;;
18695;SDS011;22617;43.690;27.956;2023-04-03T17:18:18;12.37;;;6.70;;
18695;SDS011;22617;43.690;27.956;2023-04-03T17:23:21;13.57;;;7.17;;
18695;SDS011;22617;43.690;27.956;2023-04-03T17:28:26;13.67;;;7.00;;
18695;SDS011;22617;43.690;27.956;2023-04-03T17:33:33;13.33;;;7.50;;
18695;SDS011;22617;43.690;27.956;2023-04-03T17:38:38;14.00;;;7.53;;
18695;SDS011;22617;43.690;27.956;2023-04-03T17:43:43;13.73;;;7.33;;
18695;SDS011;22617;43.690;27.956;2023-04-03T17:48:48;13.57;;;7.27;;
18695;SDS011;22617;43.690;27.956;2023-04-03T17:53:51;13.03;;;7.50;;
18695;SDS011;22617;43.690;27.956;2023-04-03T17:58:55;14.83;;;7.43;;
18695;SDS011;22617;43.690;27.956;2023-04-03T18:04:01;11.97;;;6.70;;
18695;SDS011;22617;43.690;27.956;2023-04-03T18:09:07;14.73;;;7.13;;
18695;SDS011;22617;43.690;27.956;2023-04-03T18:14:14;11.63;;;7.20;;
18695;SDS011;22617;43.690;27.956;2023-04-03T18:19:21;13.53;;;7.77;;
18695;SDS011;22617;43.690;27.956;2023-04-03T18:24:25;15.97;;;8.53;;
18695;SDS011;22617;43.690;27.956;2023-04-03T18:29:29;12.63;;;7.33;;
18695;SDS011;22617;43.690;27.956;2023-04-03T18:34:37;15.57;;;8.70;;
18695;SDS011;22617;43.690;27.956;2023-04-03T18:39:41;13.73;;;7.70;;
18695;SDS011;22617;43.690;27.956;2023-04-03T18:44:46;15.13;;;8.27;;
18695;SDS011;22617;43.690;27.956;2023-04-03T18:49:54;15.77;;;8.27;;
18695;SDS011;22617;43.690;27.956;2023-04-03T18:54:58;16.40;;;8.67;;
18695;SDS011;22617;43.690;27.956;2023-04-03T19:00:03;13.67;;;8.27;;
18695;SDS011;22617;43.690;27.956;2023-04-03T19:05:10;12.23;;;7.00;;
18695;SDS011;22617;43.690;27.956;2023-04-03T19:10:16;13.30;;;7.43;;
18695;SDS011;22617;43.690;27.956;2023-04-03T19:15:21;15.77;;;7.37;;
18695;SDS011;22617;43.690;27.956;2023-04-03T19:20:27;13.17;;;7.53;;
18695;SDS011;22617;43.690;27.956;2023-04-03T19:25:33;13.27;;;7.63;;
18695;SDS011;22617;43.690;27.956;2023-04-03T19:30:37;15.33;;;8.50;;
18695;SDS011;22617;43.690;27.956;2023-04-03T19:35:42;13.63;;;7.03;;
18695;SDS011;22617;43.690;27.956;2023-04-03T19:40:46;13.63;;;7.80;;
18695;SDS011;22617;43.690;27.956;2023-04-03T19:45:49;14.57;;;8.27;;
18695;SDS011;22617;43.690;27.956;2023-04-03T19:50:55;14.03;;;8.17;;
18695;SDS011;22617;43.690;27.956;2023-04-03T19:55:59;15.10;;;8.37;;
18695;SDS011;22617;43.690;27.956;2023-04-03T20:01:04;14.53;;;8.57;;
18695;SDS011;22617;43.690;27.956;2023-04-03T20:06:09;15.83;;;8.97;;
18695;SDS011;22617;43.690;27.956;2023-04-03T20:11:13;15.20;;;8.73;;
18695;SDS011;22617;43.690;27.956;2023-04-03T20:16:17;15.77;;;8.27;;
18695;SDS011;22617;43.690;27.956;2023-04-03T20:21:28;16.13;;;9.27;;
18695;SDS011;22617;43.690;27.956;2023-04-03T20:26:34;20.37;;;9.57;;
18695;SDS011;22617;43.690;27.956;2023-04-03T20:31:42;18.27;;;9.87;;
18695;SDS011;22617;43.690;27.956;2023-04-03T20:36:49;19.03;;;9.90;;
18695;SDS011;22617;43.690;27.956;2023-04-03T20:41:53;19.17;;;10.27;;
18695;SDS011;22617;43.690;27.956;2023-04-03T20:46:57;19.03;;;10.23;;
18695;SDS011;22617;43.690;27.956;2023-04-03T20:52:02;20.03;;;9.83;;
18695;SDS011;22617;43.690;27.956;2023-04-03T20:57:06;20.30;;;10.23;;
18695;SDS011;22617;43.690;27.956;2023-04-03T21:02:09;20.93;;;10.20;;
18695;SDS011;22617;43.690;27.956;2023-04-03T21:24:00;21.33;;;10.07;;
18695;SDS011;22617;43.690;27.956;2023-04-03T21:29:07;20.80;;;10.33;;
18695;SDS011;22617;43.690;27.956;2023-04-03T21:34:12;18.33;;;9.00;;
18695;SDS011;22617;43.690;27.956;2023-04-03T21:39:16;19.53;;;8.93;;
18695;SDS011;22617;43.690;27.956;2023-04-03T21:44:19;18.93;;;9.07;;
18695;SDS011;22617;43.690;27.956;2023-04-03T21:49:24;19.80;;;9.33;;
18695;SDS011;22617;43.690;27.956;2023-04-03T21:54:28;18.40;;;9.63;;
18695;SDS011;22617;43.690;27.956;2023-04-03T21:59:32;21.30;;;9.33;;
18695;SDS011;22617;43.690;27.956;2023-04-03T22:04:38;17.20;;;9.40;;
18695;SDS011;22617;43.690;27.956;2023-04-03T22:09:41;18.40;;;9.07;;
18695;SDS011;22617;43.690;27.956;2023-04-03T22:14:45;19.60;;;8.97;;
18695;SDS011;22617;43.690;27.956;2023-04-03T22:19:50;19.53;;;9.83;;
18695;SDS011;22617;43.690;27.956;2023-04-03T22:24:53;21.00;;;9.60;;
18695;SDS011;22617;43.690;27.956;2023-04-03T22:29:57;17.73;;;9.23;;
18695;SDS011;22617;43.690;27.956;2023-04-03T22:35:02;17.57;;;9.73;;
18695;SDS011;22617;43.690;27.956;2023-04-03T22:40:07;16.80;;;8.50;;
18695;SDS011;22617;43.690;27.956;2023-04-03T22:45:12;20.27;;;9.23;;
18695;SDS011;22617;43.690;27.956;2023-04-03T22:50:17;19.10;;;9.33;;
18695;SDS011;22617;43.690;27.956;2023-04-03T22:55:20;20.10;;;9.93;;
18695;SDS011;22617;43.690;27.956;2023-04-03T23:00:25;19.23;;;8.50;;
18695;SDS011;22617;43.690;27.956;2023-04-03T23:05:30;18.43;;;9.43;;
18695;SDS011;22617;43.690;27.956;2023-04-03T23:10:33;20.70;;;9.57;;
18695;SDS011;22617;43.690;27.956;2023-04-03T23:15:37;19.80;;;9.20;;
18695;SDS011;22617;43.690;27.956;2023-04-03T23:20:41;19.37;;;9.63;;
18695;SDS011;22617;43.690;27.956;2023-04-03T23:25:49;19.67;;;9.47;;
18695;SDS011;22617;43.690;27.956;2023-04-03T23:30:55;19.73;;;9.97;;
18695;SDS011;22617;43.690;27.956;2023-04-03T23:36:04;20.70;;;9.23;;
18695;SDS011;22617;43.690;27.956;2023-04-03T23:41:10;19.10;;;9.63;;
18695;SDS011;22617;43.690;27.956;2023-04-03T23:46:13;18.37;;;9.90;;
18695;SDS011;22617;43.690;27.956;2023-04-03T23:51:18;16.57;;;9.03;;
18695;SDS011;22617;43.690;27.956;2023-04-03T23:56:22;16.17;;;8.93;;
